Time;durP1;ratioP1;P1;durP2;ratioP2;P2;SDS_P1;SDS_P2;PMS_P1;PMS_P2;Temp;Humidity;BMP_temperature;BMP_pressure;BME280_temperature;BME280_humidity;BME280_pressure;Samples;Min_cycle;Max_cycle;Signal;HPM_P1;HPM_P2
2021/07/11 00:00:43;;;;;;;3.15;2.50;;;17.60;52.00;;;;;;5109653;27;20052;-74
2021/07/11 00:03:31;;;;;;;3.38;2.85;;;17.60;51.90;;;;;;5113902;27;20051;-74
2021/07/11 00:06:20;;;;;;;4.47;2.80;;;17.60;55.80;;;;;;5106458;27;20047;-74
2021/07/11 00:09:12;;;;;;;3.45;2.85;;;17.60;54.60;;;;;;5111720;27;20426;-74
2021/07/11 00:12:00;;;;;;;4.57;2.92;;;17.50;53.60;;;;;;5110186;27;20169;-74
2021/07/11 00:14:49;;;;;;;4.22;2.97;;;17.50;53.10;;;;;;5114103;27;20047;-74
2021/07/11 00:17:37;;;;;;;3.33;2.88;;;17.60;54.10;;;;;;5111302;27;20495;-73
2021/07/11 00:20:26;;;;;;;7.10;3.20;;;17.50;54.30;;;;;;5109006;27;20062;-75
2021/07/11 00:23:15;;;;;;;3.90;3.10;;;17.40;52.50;;;;;;5107871;27;20051;-74
2021/07/11 00:26:05;;;;;;;3.33;3.03;;;17.50;54.30;;;;;;5110101;27;20040;-74
2021/07/11 00:28:53;;;;;;;4.07;2.58;;;17.60;54.30;;;;;;5112974;27;20172;-74
2021/07/11 00:31:41;;;;;;;4.47;2.55;;;17.50;54.10;;;;;;5114484;27;20054;-74
2021/07/11 00:34:30;;;;;;;3.70;3.05;;;17.40;51.90;;;;;;5108384;27;20040;-75
2021/07/11 00:37:21;;;;;;;3.30;2.83;;;17.40;53.60;;;;;;5108823;27;20040;-74
2021/07/11 00:40:13;;;;;;;3.58;2.20;;;17.30;53.90;;;;;;5109873;27;20040;-74
2021/07/11 00:43:05;;;;;;;2.97;2.47;;;17.10;53.80;;;;;;5109114;27;20132;-74
2021/07/11 00:45:55;;;;;;;3.15;2.75;;;17.10;52.80;;;;;;5095578;27;20533;-73
2021/07/11 00:48:44;;;;;;;4.80;2.85;;;17.00;53.50;;;;;;5090454;27;20104;-73
2021/07/11 00:51:33;;;;;;;2.90;2.30;;;17.00;52.90;;;;;;5096540;27;20071;-73
2021/07/11 00:54:23;;;;;;;3.67;2.38;;;17.10;54.20;;;;;;5098282;27;20076;-74
2021/07/11 00:57:11;;;;;;;5.05;3.40;;;17.00;53.50;;;;;;5095308;27;20531;-74
2021/07/11 01:00:07;;;;;;;3.92;2.50;;;16.90;52.80;;;;;;5092522;27;20260;-74
2021/07/11 01:03:11;;;;;;;3.75;2.55;;;16.80;52.90;;;;;;5093898;27;20085;-74
2021/07/11 01:06:04;;;;;;;4.57;3.00;;;16.90;55.60;;;;;;5088155;27;20085;-74
2021/07/11 01:08:57;;;;;;;3.70;2.53;;;16.90;55.30;;;;;;5093500;27;20052;-73
2021/07/11 01:11:55;;;;;;;3.10;2.35;;;16.90;54.70;;;;;;5096498;27;20059;-73
2021/07/11 01:14:44;;;;;;;3.97;2.80;;;16.90;54.50;;;;;;5108692;27;20147;-72
2021/07/11 01:17:38;;;;;;;4.95;2.78;;;16.80;53.80;;;;;;5106731;27;20395;-75
2021/07/11 01:20:38;;;;;;;5.28;2.72;;;16.80;54.50;;;;;;5093179;27;20142;-74
2021/07/11 01:23:37;;;;;;;5.20;2.83;;;16.80;54.20;;;;;;5095337;27;20055;-74
2021/07/11 01:26:28;;;;;;;3.78;2.80;;;16.90;53.70;;;;;;5093529;27;20078;-73
2021/07/11 01:29:21;;;;;;;3.17;2.58;;;16.80;53.70;;;;;;5091568;28;20135;-73
2021/07/11 01:32:11;;;;;;;5.93;2.53;;;16.70;53.10;;;;;;5092249;27;20506;-74
2021/07/11 01:35:00;;;;;;;2.60;2.33;;;16.70;53.70;;;;;;5085845;27;20138;-74
2021/07/11 01:37:52;;;;;;;6.35;2.35;;;16.80;54.10;;;;;;5093409;27;20040;-74
2021/07/11 01:40:44;;;;;;;3.17;2.50;;;16.80;51.40;;;;;;5095958;27;20567;-73
2021/07/11 01:43:36;;;;;;;6.88;2.50;;;16.70;48.90;;;;;;5112848;27;20054;-74
2021/07/11 01:46:25;;;;;;;5.72;2.50;;;16.60;48.80;;;;;;5095743;27;20051;-71
2021/07/11 01:49:17;;;;;;;3.03;2.08;;;16.80;48.90;;;;;;5091840;27;20051;-71
2021/07/11 01:52:12;;;;;;;6.05;2.45;;;16.80;46.70;;;;;;5108091;27;20036;-69
2021/07/11 01:55:02;;;;;;;2.97;2.08;;;16.80;45.20;;;;;;5111962;27;20149;-73
2021/07/11 01:57:51;;;;;;;4.72;2.40;;;16.70;47.40;;;;;;5090657;27;20078;-74
2021/07/11 02:00:42;;;;;;;5.13;2.00;;;16.60;47.10;;;;;;5089599;27;20031;-73
2021/07/11 02:03:32;;;;;;;2.92;1.88;;;16.60;49.00;;;;;;5108238;27;20113;-73
2021/07/11 02:06:25;;;;;;;5.43;2.05;;;16.60;48.00;;;;;;5091210;27;20055;-73
2021/07/11 02:09:26;;;;;;;4.00;2.53;;;16.60;50.10;;;;;;5098115;27;20507;-72
2021/07/11 02:12:23;;;;;;;5.53;2.20;;;16.60;48.20;;;;;;5095633;27;20520;-72
2021/07/11 02:15:12;;;;;;;3.35;2.28;;;16.60;47.70;;;;;;5089301;27;20048;-73
2021/07/11 02:18:03;;;;;;;4.78;2.22;;;16.60;49.80;;;;;;5090205;27;20048;-74
2021/07/11 02:20:59;;;;;;;4.15;2.15;;;16.60;48.20;;;;;;5092298;27;20058;-73
2021/07/11 02:23:50;;;;;;;3.78;2.22;;;16.60;50.20;;;;;;5094651;27;20147;-74
2021/07/11 02:26:43;;;;;;;3.35;2.00;;;16.50;47.30;;;;;;5081693;27;20043;-73
2021/07/11 02:29:36;;;;;;;5.05;2.13;;;16.50;47.50;;;;;;5103578;27;20050;-73
2021/07/11 02:32:30;;;;;;;3.55;1.92;;;16.60;49.30;;;;;;5090981;27;20069;-72
2021/07/11 02:35:29;;;;;;;4.65;2.40;;;16.60;48.70;;;;;;5104477;27;20043;-73
2021/07/11 02:38:19;;;;;;;3.35;2.25;;;16.60;49.50;;;;;;5089478;27;20044;-73
2021/07/11 02:41:09;;;;;;;6.65;2.38;;;16.60;48.90;;;;;;5092407;27;20055;-73
2021/07/11 02:43:59;;;;;;;2.90;1.98;;;16.60;48.90;;;;;;5099885;27;20092;-72
2021/07/11 02:46:55;;;;;;;3.28;2.08;;;16.60;48.40;;;;;;5088657;27;20043;-73
2021/07/11 02:49:49;;;;;;;6.00;2.30;;;16.50;48.30;;;;;;5093517;27;20084;-72
2021/07/11 02:52:42;;;;;;;5.07;2.50;;;16.50;49.20;;;;;;5107124;27;20051;-71
2021/07/11 02:55:36;;;;;;;4.60;2.13;;;16.40;48.80;;;;;;5089592;27;20489;-71
2021/07/11 02:58:27;;;;;;;4.45;2.30;;;16.30;49.40;;;;;;5088873;27;20494;-71
2021/07/11 03:01:20;;;;;;;4.30;2.10;;;16.40;50.70;;;;;;5109446;27;20058;-71
2021/07/11 03:04:14;;;;;;;2.15;1.85;;;16.40;49.60;;;;;;5093396;28;20083;-72
2021/07/11 03:07:05;;;;;;;3.75;2.20;;;16.40;49.60;;;;;;5087676;27;20388;-71
2021/07/11 03:09:56;;;;;;;4.63;2.35;;;16.40;50.00;;;;;;5088193;28;20055;-71
2021/07/11 03:12:49;;;;;;;7.38;2.42;;;16.40;48.60;;;;;;5105562;27;20257;-71
2021/07/11 03:15:39;;;;;;;6.50;2.47;;;16.40;51.40;;;;;;5097954;28;20623;-73
2021/07/11 03:18:32;;;;;;;7.15;2.55;;;16.40;51.60;;;;;;5090337;28;20399;-72
2021/07/11 03:21:23;;;;;;;3.75;2.50;;;16.30;51.60;;;;;;5093670;28;20478;-72
2021/07/11 03:24:12;;;;;;;5.18;2.35;;;16.30;52.50;;;;;;5090506;28;20058;-71
2021/07/11 03:27:03;;;;;;;5.65;2.50;;;16.30;53.30;;;;;;5084678;28;20032;-72
2021/07/11 03:30:01;;;;;;;6.15;2.45;;;16.20;53.50;;;;;;5103288;28;20070;-70
2021/07/11 03:32:54;;;;;;;4.18;2.40;;;16.10;53.30;;;;;;5091870;28;20055;-72
2021/07/11 03:35:49;;;;;;;5.85;2.60;;;16.10;53.20;;;;;;5087058;28;20506;-70
2021/07/11 03:38:47;;;;;;;4.85;2.28;;;16.10;53.70;;;;;;5086293;28;20611;-71
2021/07/11 03:41:40;;;;;;;3.72;2.70;;;16.20;50.90;;;;;;5088899;28;20130;-73
2021/07/11 03:44:35;;;;;;;3.88;2.47;;;16.30;51.40;;;;;;5091029;28;20055;-71
2021/07/11 03:47:26;;;;;;;3.67;2.50;;;16.30;51.00;;;;;;5112713;28;20123;-71
2021/07/11 03:50:16;;;;;;;4.03;2.67;;;16.30;51.50;;;;;;5109553;28;20493;-72
2021/07/11 03:53:06;;;;;;;3.45;2.20;;;16.30;51.00;;;;;;5107452;28;20051;-71
2021/07/11 03:55:56;;;;;;;4.40;2.17;;;16.20;50.90;;;;;;5102771;28;20048;-71
2021/07/11 03:58:45;;;;;;;7.75;2.50;;;16.30;51.10;;;;;;5093557;28;20036;-72
2021/07/11 04:01:37;;;;;;;3.15;2.33;;;16.30;51.00;;;;;;5111834;28;20047;-71
2021/07/11 04:04:28;;;;;;;6.22;2.33;;;16.30;50.90;;;;;;5109806;28;20047;-71
2021/07/11 04:07:20;;;;;;;5.63;3.00;;;16.30;50.90;;;;;;5105760;28;20051;-72
2021/07/11 04:10:12;;;;;;;4.13;2.50;;;16.40;51.70;;;;;;5108347;28;20245;-72
2021/07/11 04:13:00;;;;;;;3.28;2.80;;;16.30;52.20;;;;;;5113384;27;20048;-71
2021/07/11 04:15:52;;;;;;;7.20;2.70;;;16.30;51.90;;;;;;5106777;27;20140;-72
2021/07/11 04:18:44;;;;;;;3.90;2.70;;;16.20;53.00;;;;;;5108020;27;20073;-71
2021/07/11 04:21:34;;;;;;;5.60;2.67;;;16.20;52.20;;;;;;5112185;27;20036;-71
2021/07/11 04:24:23;;;;;;;3.45;2.85;;;16.30;53.20;;;;;;5111989;27;20050;-72
2021/07/11 04:27:13;;;;;;;4.60;2.90;;;16.30;55.00;;;;;;5093975;27;20044;-71
2021/07/11 04:30:02;;;;;;;7.72;2.80;;;16.20;54.10;;;;;;5109250;27;20126;-71
2021/07/11 04:32:50;;;;;;;4.10;2.75;;;16.20;53.70;;;;;;5113491;27;20043;-71
2021/07/11 04:35:40;;;;;;;4.63;3.20;;;16.30;53.50;;;;;;5106976;27;20176;-71
2021/07/11 04:38:29;;;;;;;6.70;2.80;;;16.40;52.50;;;;;;5111928;27;20110;-71
2021/07/11 04:41:17;;;;;;;5.18;2.53;;;16.40;51.90;;;;;;5118712;27;20052;-71
2021/07/11 04:44:06;;;;;;;7.43;2.65;;;16.40;49.30;;;;;;5116551;27;20047;-72
2021/07/11 04:46:54;;;;;;;4.72;2.90;;;16.40;49.70;;;;;;5107399;27;20054;-72
2021/07/11 04:49:43;;;;;;;3.22;2.22;;;16.60;50.70;;;;;;5106627;27;20042;-72
2021/07/11 04:52:33;;;;;;;4.18;2.30;;;16.70;50.30;;;;;;5111509;27;20058;-72
2021/07/11 04:55:21;;;;;;;7.50;2.47;;;16.70;47.40;;;;;;5114656;27;20189;-72
2021/07/11 04:58:09;;;;;;;3.85;2.50;;;16.70;48.10;;;;;;5096718;27;20040;-72
2021/07/11 05:00:58;;;;;;;3.05;2.10;;;16.70;46.70;;;;;;5107367;27;20066;-71
2021/07/11 05:03:46;;;;;;;6.93;2.30;;;16.70;45.70;;;;;;5112259;27;20214;-71
2021/07/11 05:06:35;;;;;;;5.32;2.53;;;16.90;47.20;;;;;;5108469;27;20505;-71
2021/07/11 05:09:24;;;;;;;2.38;2.00;;;16.80;44.20;;;;;;5111364;27;20133;-71
2021/07/11 05:12:13;;;;;;;3.00;2.42;;;17.00;44.10;;;;;;5095287;27;20609;-70
2021/07/11 05:15:01;;;;;;;3.78;2.40;;;17.10;44.20;;;;;;5105396;27;20054;-73
2021/07/11 05:17:49;;;;;;;3.80;2.38;;;17.00;42.40;;;;;;5108931;27;20055;-72
2021/07/11 05:20:38;;;;;;;6.28;2.47;;;17.10;40.60;;;;;;5107508;27;20502;-72
2021/07/11 05:23:26;;;;;;;4.60;2.28;;;17.10;43.10;;;;;;5112314;27;20523;-72
2021/07/11 05:26:16;;;;;;;4.90;2.53;;;17.10;42.60;;;;;;5089181;27;20047;-72
2021/07/11 05:29:04;;;;;;;4.53;2.30;;;17.10;40.40;;;;;;5109540;27;20390;-71
2021/07/11 05:31:53;;;;;;;4.82;2.22;;;17.00;40.50;;;;;;5111184;27;20054;-72
2021/07/11 05:34:42;;;;;;;2.50;2.05;;;17.00;40.50;;;;;;5111346;27;20050;-72
2021/07/11 05:37:30;;;;;;;4.03;2.38;;;17.00;40.60;;;;;;5109057;27;20180;-72
2021/07/11 05:40:18;;;;;;;7.03;2.30;;;17.00;42.10;;;;;;5104748;27;20508;-71
2021/07/11 05:43:08;;;;;;;3.38;2.28;;;17.00;39.70;;;;;;5112353;27;20490;-73
2021/07/11 05:45:57;;;;;;;3.28;2.40;;;17.10;40.70;;;;;;5105418;27;20052;-72
2021/07/11 05:48:45;;;;;;;2.95;2.40;;;16.90;36.60;;;;;;5108879;27;20100;-72
2021/07/11 05:51:33;;;;;;;6.50;3.03;;;16.80;39.10;;;;;;5110289;27;20418;-72
2021/07/11 05:54:23;;;;;;;4.05;2.60;;;16.90;40.10;;;;;;5092363;27;20156;-72
2021/07/11 05:57:11;;;;;;;4.70;2.33;;;16.80;38.80;;;;;;5109695;27;20070;-72
2021/07/11 06:00:01;;;;;;;3.25;2.50;;;16.80;40.30;;;;;;5106844;27;20115;-72
2021/07/11 06:03:00;;;;;;;8.73;2.67;;;16.90;39.70;;;;;;5106854;27;20043;-72
2021/07/11 06:05:48;;;;;;;3.85;2.72;;;16.90;38.30;;;;;;5113864;27;20039;-72
2021/07/11 06:08:36;;;;;;;3.95;2.50;;;17.00;37.80;;;;;;5090912;27;20040;-72
2021/07/11 06:11:25;;;;;;;4.78;2.53;;;16.90;39.20;;;;;;5107948;27;20047;-73
2021/07/11 06:14:14;;;;;;;2.95;2.63;;;17.00;37.80;;;;;;5112059;27;20529;-73
2021/07/11 06:17:04;;;;;;;4.38;2.92;;;17.50;35.90;;;;;;5106457;27;20419;-72
2021/07/11 06:19:52;;;;;;;4.10;2.60;;;17.90;30.00;;;;;;5105085;27;20047;-71
2021/07/11 06:22:41;;;;;;;4.80;2.75;;;18.20;27.70;;;;;;5106076;27;20055;-73
2021/07/11 06:25:30;;;;;;;2.25;2.00;;;17.90;24.00;;;;;;5105150;27;20923;-73
2021/07/11 06:28:18;;;;;;;3.72;2.63;;;17.80;26.40;;;;;;5104557;27;20134;-72
2021/07/11 06:31:06;;;;;;;6.35;2.67;;;18.20;24.90;;;;;;5093262;27;20100;-72
2021/07/11 06:33:56;;;;;;;2.83;2.22;;;18.20;20.70;;;;;;5109606;27;20036;-72
2021/07/11 06:36:44;;;;;;;2.72;2.28;;;18.70;20.60;;;;;;5106274;27;20521;-72
2021/07/11 06:39:33;;;;;;;4.00;2.35;;;19.40;16.10;;;;;;5107037;27;20054;-72
2021/07/11 06:42:21;;;;;;;4.45;2.35;;;18.90;11.40;;;;;;5105827;27;20050;-72
2021/07/11 06:45:12;;;;;;;7.10;2.42;;;18.70;10.40;;;;;;5097035;27;20123;-72
2021/07/11 06:48:00;;;;;;;2.88;2.35;;;18.20;11.80;;;;;;5113070;27;20493;-72
2021/07/11 06:50:50;;;;;;;4.72;2.08;;;18.40;14.10;;;;;;5107369;27;20047;-72
2021/07/11 06:53:39;;;;;;;2.83;2.10;;;18.40;12.80;;;;;;5107832;27;20051;-73
2021/07/11 06:56:27;;;;;;;4.55;1.90;;;18.70;12.90;;;;;;5108691;27;20051;-72
2021/07/11 06:59:16;;;;;;;5.40;2.33;;;19.20;10.40;;;;;;5107389;27;20048;-73
2021/07/11 07:02:05;;;;;;;6.90;2.30;;;19.20;8.50;;;;;;5108765;27;20039;-73
2021/07/11 07:04:54;;;;;;;4.10;2.05;;;19.20;9.60;;;;;;5105981;27;20594;-71
2021/07/11 07:07:44;;;;;;;2.78;1.88;;;18.70;9.30;;;;;;5105680;27;20406;-72
2021/07/11 07:10:32;;;;;;;2.13;1.92;;;18.70;8.70;;;;;;5106561;27;20044;-73
2021/07/11 07:13:21;;;;;;;5.05;2.10;;;19.50;8.70;;;;;;5108889;27;20073;-72
2021/07/11 07:16:10;;;;;;;3.97;2.28;;;18.90;7.80;;;;;;5099344;27;20296;-73
2021/07/11 07:18:58;;;;;;;4.45;2.40;;;19.30;7.40;;;;;;5105163;28;20532;-72
2021/07/11 07:21:47;;;;;;;4.70;2.22;;;18.60;10.00;;;;;;5105796;28;20055;-71
2021/07/11 07:24:36;;;;;;;3.28;2.38;;;18.60;10.60;;;;;;5113543;28;20452;-72
2021/07/11 07:27:25;;;;;;;5.60;2.40;;;18.90;8.80;;;;;;5112424;28;20126;-73
2021/07/11 07:30:16;;;;;;;3.08;1.90;;;18.60;7.50;;;;;;5108625;28;20061;-72
2021/07/11 07:33:04;;;;;;;2.58;2.13;;;19.40;8.30;;;;;;5108882;28;20040;-73
2021/07/11 07:35:52;;;;;;;3.75;2.00;;;19.70;4.40;;;;;;5105052;28;20115;-73
2021/07/11 07:38:41;;;;;;;3.47;2.00;;;19.60;4.00;;;;;;5108744;28;20051;-73
2021/07/11 07:41:30;;;;;;;2.47;1.75;;;19.80;2.10;;;;;;5108381;28;20043;-73
2021/07/11 07:44:19;;;;;;;3.00;1.90;;;19.60;3.00;;;;;;5106330;28;20051;-72
2021/07/11 07:47:08;;;;;;;5.60;1.85;;;19.50;2.30;;;;;;5109439;27;20135;-72
2021/07/11 07:49:56;;;;;;;2.80;2.03;;;19.20;3.80;;;;;;5112430;27;20044;-72
2021/07/11 07:52:47;;;;;;;3.25;1.80;;;19.30;2.00;;;;;;5112908;27;20040;-73
2021/07/11 07:55:36;;;;;;;4.35;2.00;;;19.80;1.90;;;;;;5111253;27;20128;-72
2021/07/11 07:58:25;;;;;;;4.07;2.03;;;19.60;1.00;;;;;;5107845;27;20130;-73
2021/07/11 08:01:15;;;;;;;3.33;1.80;;;19.70;1.00;;;;;;5111198;27;20498;-72
2021/07/11 08:04:04;;;;;;;2.75;1.85;;;19.70;1.00;;;;;;5113815;27;20043;-71
2021/07/11 08:06:52;;;;;;;2.85;1.80;;;19.70;1.70;;;;;;5107098;27;20169;-72
2021/07/11 08:09:40;;;;;;;2.85;1.63;;;19.50;1.00;;;;;;5109050;27;20066;-72
2021/07/11 08:12:29;;;;;;;2.10;1.90;;;19.40;1.20;;;;;;5112812;27;20044;-72
2021/07/11 08:15:19;;;;;;;2.33;1.60;;;19.50;1.00;;;;;;5109773;27;20046;-71
2021/07/11 08:18:07;;;;;;;1.83;1.50;;;19.80;1.00;;;;;;5111920;27;20135;-72
2021/07/11 08:20:56;;;;;;;2.17;1.58;;;20.10;1.00;;;;;;5112324;27;20039;-71
2021/07/11 08:23:44;;;;;;;4.93;1.70;;;20.00;1.00;;;;;;5110474;27;20044;-72
2021/07/11 08:26:33;;;;;;;3.45;1.38;;;19.90;1.00;;;;;;5093484;27;20605;-71
2021/07/11 08:29:21;;;;;;;2.95;1.40;;;20.30;1.00;;;;;;5109277;27;20551;-72
2021/07/11 08:32:11;;;;;;;2.53;1.38;;;20.20;1.00;;;;;;5116325;27;20035;-71
2021/07/11 08:35:00;;;;;;;4.05;1.50;;;21.00;1.00;;;;;;5110715;27;20126;-74
2021/07/11 08:37:48;;;;;;;2.80;1.25;;;21.10;1.00;;;;;;5109436;27;20449;-72
2021/07/11 08:40:37;;;;;;;1.45;1.10;;;21.40;1.00;;;;;;5113227;27;20051;-71
2021/07/11 08:43:25;;;;;;;1.58;1.27;;;20.60;1.00;;;;;;5116621;27;20051;-71
2021/07/11 08:46:14;;;;;;;2.60;1.23;;;20.50;1.00;;;;;;5100131;27;20051;-73
2021/07/11 08:49:04;;;;;;;1.83;1.20;;;20.70;1.00;;;;;;5106100;27;20677;-72
2021/07/11 08:51:58;;;;;;;1.70;1.30;;;21.00;1.00;;;;;;5109350;27;20135;-72
2021/07/11 08:54:46;;;;;;;2.88;1.50;;;20.40;1.00;;;;;;5109039;27;20055;-71
2021/07/11 08:57:35;;;;;;;2.00;1.30;;;20.10;1.00;;;;;;5107298;27;20506;-72
2021/07/11 09:00:25;;;;;;;2.72;1.30;;;19.70;1.00;;;;;;5107603;27;20415;-73
2021/07/11 09:03:14;;;;;;;1.98;1.50;;;20.50;1.00;;;;;;5110762;27;20051;-72
2021/07/11 09:06:03;;;;;;;2.22;1.52;;;20.80;1.00;;;;;;5111323;27;20035;-73
2021/07/11 09:09:00;;;;;;;2.10;1.65;;;21.00;1.00;;;;;;5113386;27;20075;-72
2021/07/11 09:11:51;;;;;;;1.80;1.48;;;21.20;1.00;;;;;;5097985;27;20043;-72
2021/07/11 09:14:41;;;;;;;3.63;1.70;;;20.80;1.00;;;;;;5107588;27;20405;-72
2021/07/11 09:17:33;;;;;;;5.03;1.42;;;20.40;1.00;;;;;;5106975;27;20050;-73
2021/07/11 09:20:22;;;;;;;1.63;1.52;;;21.00;1.00;;;;;;5110273;27;20043;-72
2021/07/11 09:23:14;;;;;;;5.68;1.73;;;20.60;1.00;;;;;;5112455;27;20039;-73
2021/07/11 09:26:05;;;;;;;2.72;1.73;;;20.50;1.00;;;;;;5094521;27;20458;-72
2021/07/11 09:28:54;;;;;;;2.63;1.33;;;20.00;1.00;;;;;;5106768;27;20058;-72
2021/07/11 09:31:42;;;;;;;3.78;1.60;;;21.20;1.00;;;;;;5109906;27;20116;-75
2021/07/11 09:34:32;;;;;;;2.08;1.30;;;21.20;1.00;;;;;;5107020;27;20661;-72
2021/07/11 09:37:24;;;;;;;3.53;1.20;;;19.80;1.00;;;;;;5109120;27;20047;-73
2021/07/11 09:40:16;;;;;;;7.88;1.40;;;20.00;1.00;;;;;;5109746;27;20043;-73
2021/07/11 09:43:12;;;;;;;2.40;2.10;;;20.70;1.00;;;;;;5106045;27;20072;-73
2021/07/11 09:46:12;;;;;;;2.58;1.42;;;20.90;1.00;;;;;;5108278;27;20516;-73
2021/07/11 09:49:05;;;;;;;5.13;1.50;;;20.70;1.00;;;;;;5091988;27;20463;-72
2021/07/11 09:51:57;;;;;;;1.80;1.30;;;21.60;1.00;;;;;;5112741;27;20419;-72
2021/07/11 09:54:54;;;;;;;4.20;1.65;;;21.50;1.00;;;;;;5092998;27;20480;-73
2021/07/11 09:57:46;;;;;;;2.65;1.50;;;21.70;1.00;;;;;;5107920;27;20550;-73
2021/07/11 10:00:39;;;;;;;2.30;1.40;;;20.70;1.00;;;;;;5106820;27;20502;-73
2021/07/11 10:03:29;;;;;;;2.70;1.40;;;21.80;1.00;;;;;;5105893;27;20422;-74
2021/07/11 10:06:17;;;;;;;4.32;1.67;;;21.80;1.00;;;;;;5105140;27;20543;-72
2021/07/11 10:09:08;;;;;;;2.30;1.50;;;21.90;1.00;;;;;;5105970;27;20048;-71
2021/07/11 10:11:56;;;;;;;1.92;1.58;;;21.80;1.00;;;;;;5106451;27;20043;-72
2021/07/11 10:14:46;;;;;;;2.08;1.50;;;21.40;1.00;;;;;;5092191;27;20048;-72
2021/07/11 10:17:37;;;;;;;2.35;1.42;;;22.00;1.00;;;;;;5106384;27;20514;-73
2021/07/11 10:20:31;;;;;;;2.30;1.40;;;21.60;1.00;;;;;;5101612;27;20043;-72
2021/07/11 10:23:28;;;;;;;3.38;1.50;;;21.20;1.00;;;;;;5095500;27;20102;-72
2021/07/11 10:26:18;;;;;;;1.98;1.40;;;21.70;1.00;;;;;;5110491;27;20047;-73
2021/07/11 10:29:14;;;;;;;1.60;1.20;;;21.40;1.00;;;;;;5104017;27;20742;-73
2021/07/11 10:32:04;;;;;;;2.88;1.60;;;20.70;1.00;;;;;;5108361;27;20453;-72
2021/07/11 10:34:53;;;;;;;4.30;1.40;;;21.10;1.00;;;;;;5111471;27;20048;-72
2021/07/11 10:37:47;;;;;;;2.70;1.50;;;21.20;1.00;;;;;;5097403;27;20090;-73
2021/07/11 10:40:38;;;;;;;3.05;1.95;;;21.80;1.00;;;;;;5104793;27;20145;-72
2021/07/11 10:43:26;;;;;;;4.47;1.85;;;21.40;1.00;;;;;;5092072;27;20050;-73
2021/07/11 10:46:15;;;;;;;2.95;1.52;;;22.10;1.00;;;;;;5110129;27;20069;-73
2021/07/11 10:49:13;;;;;;;3.22;1.50;;;21.10;1.00;;;;;;5082670;27;20414;-73
2021/07/11 10:52:03;;;;;;;2.92;1.35;;;21.30;1.00;;;;;;5108892;27;20036;-71
2021/07/11 10:54:57;;;;;;;2.45;1.70;;;20.80;1.00;;;;;;5108102;27;20487;-74
2021/07/11 10:57:48;;;;;;;2.90;1.83;;;21.30;1.00;;;;;;5104643;27;20039;-73
2021/07/11 11:00:42;;;;;;;3.75;1.50;;;22.00;1.00;;;;;;5091746;27;20478;-74
2021/07/11 11:03:31;;;;;;;1.80;1.42;;;21.70;1.00;;;;;;5111320;27;20623;-73
2021/07/11 11:06:20;;;;;;;3.65;1.30;;;22.10;1.00;;;;;;5109024;27;20761;-73
2021/07/11 11:09:10;;;;;;;3.13;1.52;;;21.70;1.00;;;;;;5104619;27;20046;-72
2021/07/11 11:11:58;;;;;;;1.88;1.55;;;22.00;1.00;;;;;;5092715;28;20097;-73
2021/07/11 11:14:58;;;;;;;2.22;1.30;;;21.20;1.00;;;;;;5109747;27;20046;-73
2021/07/11 11:17:46;;;;;;;2.80;1.75;;;21.30;1.00;;;;;;5109255;27;20050;-72
2021/07/11 11:20:35;;;;;;;4.10;1.25;;;21.90;1.00;;;;;;5105296;27;20051;-72
2021/07/11 11:23:26;;;;;;;1.92;1.48;;;22.00;1.00;;;;;;5102703;28;20051;-73
2021/07/11 11:26:20;;;;;;;2.30;1.23;;;21.30;1.00;;;;;;5088516;28;20074;-74
2021/07/11 11:29:09;;;;;;;3.15;1.55;;;21.70;1.00;;;;;;5105501;28;20402;-73
2021/07/11 11:32:08;;;;;;;2.08;1.58;;;21.50;1.00;;;;;;5106782;28;20132;-71
2021/07/11 11:34:59;;;;;;;2.08;1.60;;;22.60;1.00;;;;;;5104933;28;20048;-74
2021/07/11 11:37:49;;;;;;;2.33;1.30;;;22.50;1.00;;;;;;5075063;28;20097;-72
2021/07/11 11:40:39;;;;;;;3.42;1.55;;;21.60;1.00;;;;;;5107888;28;20495;-73
2021/07/11 11:43:27;;;;;;;1.75;1.35;;;22.20;1.00;;;;;;5116119;28;20050;-73
2021/07/11 11:46:29;;;;;;;1.95;1.40;;;22.70;1.00;;;;;;5109750;28;20169;-74
2021/07/11 11:49:20;;;;;;;3.10;1.40;;;22.10;1.00;;;;;;5105122;28;20132;-73
2021/07/11 11:52:09;;;;;;;1.80;1.40;;;22.50;1.00;;;;;;5093686;28;20032;-74
2021/07/11 11:55:04;;;;;;;2.35;1.42;;;22.90;1.00;;;;;;5105414;28;20054;-73
2021/07/11 11:57:59;;;;;;;3.90;1.38;;;22.50;1.00;;;;;;5094410;28;20044;-72
2021/07/11 12:00:47;;;;;;;1.67;1.35;;;22.40;1.00;;;;;;5104415;28;20054;-73
2021/07/11 12:03:36;;;;;;;2.70;1.60;;;23.00;1.00;;;;;;5113132;28;20506;-72
2021/07/11 12:06:25;;;;;;;3.15;1.70;;;22.30;1.00;;;;;;5107800;28;20093;-73
2021/07/11 12:09:15;;;;;;;3.00;1.65;;;22.50;1.00;;;;;;5107692;28;20055;-71
2021/07/11 12:12:07;;;;;;;2.33;1.38;;;22.70;1.00;;;;;;5108243;28;20046;-73
2021/07/11 12:14:59;;;;;;;2.60;1.42;;;22.80;1.00;;;;;;5090986;28;20120;-72
2021/07/11 12:17:47;;;;;;;2.47;1.08;;;23.50;1.00;;;;;;5108829;28;20200;-73
2021/07/11 12:20:39;;;;;;;2.90;1.13;;;23.30;1.00;;;;;;5108934;28;20072;-73
2021/07/11 12:23:29;;;;;;;2.75;1.52;;;23.10;1.00;;;;;;5106990;28;20059;-73
2021/07/11 12:26:23;;;;;;;1.77;1.25;;;23.60;1.00;;;;;;5110157;28;20066;-72
2021/07/11 12:29:15;;;;;;;4.35;1.10;;;24.50;1.00;;;;;;5100498;28;20177;-72
2021/07/11 12:32:07;;;;;;;2.88;1.40;;;24.00;1.00;;;;;;5094997;28;20113;-72
2021/07/11 12:34:58;;;;;;;2.50;1.33;;;22.30;1.00;;;;;;5111197;27;20806;-72
2021/07/11 12:37:55;;;;;;;2.13;1.30;;;23.50;1.00;;;;;;5108353;27;20054;-73
2021/07/11 12:40:44;;;;;;;1.52;1.40;;;23.70;1.00;;;;;;5084800;27;20640;-73
2021/07/11 12:43:46;;;;;;;1.70;1.42;;;23.90;1.00;;;;;;5102502;27;20042;-74
2021/07/11 12:46:36;;;;;;;1.92;1.30;;;24.40;1.00;;;;;;5116438;27;20130;-72
2021/07/11 12:49:28;;;;;;;1.92;1.20;;;24.00;1.00;;;;;;5108552;27;20056;-73
2021/07/11 12:52:18;;;;;;;3.40;1.17;;;24.40;1.00;;;;;;5093366;27;20046;-74
2021/07/11 12:55:12;;;;;;;1.42;1.20;;;24.50;1.00;;;;;;5111161;27;20673;-73
2021/07/11 12:58:15;;;;;;;2.10;1.88;;;24.30;1.00;;;;;;5110948;27;20459;-73
2021/07/11 13:01:04;;;;;;;1.80;1.30;;;23.60;1.00;;;;;;5111869;27;20054;-73
2021/07/11 13:04:01;;;;;;;1.92;1.10;;;23.10;1.00;;;;;;5109593;27;20035;-73
2021/07/11 13:07:01;;;;;;;2.45;1.38;;;23.30;1.00;;;;;;5095468;27;20136;-73
2021/07/11 13:09:50;;;;;;;2.63;1.40;;;22.20;1.00;;;;;;5092785;27;20043;-73
2021/07/11 13:12:39;;;;;;;3.20;1.50;;;22.60;1.00;;;;;;5090868;27;20648;-72
2021/07/11 13:15:27;;;;;;;1.77;1.30;;;22.30;1.00;;;;;;5093260;27;20039;-73
2021/07/11 13:18:16;;;;;;;1.80;1.35;;;22.10;1.00;;;;;;5105695;27;20047;-74
2021/07/11 13:21:04;;;;;;;2.17;1.33;;;22.00;1.00;;;;;;5108284;27;20047;-73
2021/07/11 13:23:54;;;;;;;2.53;1.40;;;22.20;1.00;;;;;;5110369;27;20069;-73
2021/07/11 13:26:43;;;;;;;2.38;1.60;;;21.80;1.00;;;;;;5106293;27;20118;-74
2021/07/11 13:29:32;;;;;;;3.97;1.73;;;21.90;1.00;;;;;;5103996;27;20253;-73
2021/07/11 13:32:21;;;;;;;3.03;1.40;;;21.90;1.00;;;;;;5095694;27;20445;-74
2021/07/11 13:35:11;;;;;;;1.98;1.58;;;22.00;1.00;;;;;;5106703;27;20083;-74
2021/07/11 13:37:59;;;;;;;3.30;1.50;;;22.80;1.00;;;;;;5107313;27;20442;-73
2021/07/11 13:40:49;;;;;;;2.67;1.30;;;22.60;1.00;;;;;;5094906;27;20032;-74
2021/07/11 13:43:38;;;;;;;2.67;1.30;;;23.00;1.00;;;;;;5096261;27;20055;-77
2021/07/11 13:46:27;;;;;;;1.30;1.20;;;23.60;1.00;;;;;;5102969;27;20496;-73
2021/07/11 13:49:15;;;;;;;1.85;1.20;;;24.00;1.00;;;;;;5091701;27;20109;-75
2021/07/11 13:52:05;;;;;;;1.38;1.15;;;24.50;1.00;;;;;;5107145;27;20118;-75
2021/07/11 13:54:57;;;;;;;1.60;1.42;;;23.90;1.00;;;;;;5108890;27;20065;-74
2021/07/11 13:57:49;;;;;;;2.33;1.10;;;23.70;1.00;;;;;;5108486;27;20502;-74
2021/07/11 14:00:38;;;;;;;3.30;1.30;;;22.60;1.00;;;;;;5072346;27;20529;-73
2021/07/11 14:03:27;;;;;;;1.58;1.48;;;22.70;1.00;;;;;;5113051;27;20047;-74
2021/07/11 14:06:16;;;;;;;3.15;1.75;;;23.90;1.00;;;;;;5097358;27;20051;-75
2021/07/11 14:09:05;;;;;;;1.67;1.30;;;24.70;1.00;;;;;;5098397;27;20111;-74
2021/07/11 14:11:53;;;;;;;2.35;1.20;;;24.60;1.00;;;;;;5108498;27;20050;-73
2021/07/11 14:14:45;;;;;;;6.45;4.88;;;24.90;1.00;;;;;;5115301;27;20043;-74
2021/07/11 14:17:33;;;;;;;1.45;1.30;;;24.60;1.00;;;;;;5103135;27;20060;-73
2021/07/11 14:20:23;;;;;;;2.63;1.33;;;23.70;1.00;;;;;;5104448;27;20070;-74
2021/07/11 14:23:11;;;;;;;1.67;1.10;;;23.60;1.00;;;;;;5105435;27;20051;-74
2021/07/11 14:26:01;;;;;;;5.97;1.60;;;23.50;1.00;;;;;;5111668;27;20062;-75
2021/07/11 14:28:50;;;;;;;3.38;1.80;;;23.10;1.00;;;;;;5104871;27;20103;-75
2021/07/11 14:31:40;;;;;;;1.73;1.48;;;23.90;1.00;;;;;;5107503;27;20399;-74
2021/07/11 14:34:29;;;;;;;1.40;1.25;;;24.00;1.00;;;;;;5108848;27;20042;-73
2021/07/11 14:37:36;;;;;;;2.20;1.27;;;23.50;1.00;;;;;;5104372;27;20040;-74
2021/07/11 14:40:25;;;;;;;1.40;1.30;;;23.30;1.00;;;;;;5109203;27;20354;-73
2021/07/11 14:43:14;;;;;;;3.05;1.92;;;24.40;1.00;;;;;;5102096;27;20511;-74
2021/07/11 14:46:02;;;;;;;3.63;1.50;;;23.70;1.00;;;;;;5106838;27;20530;-76
2021/07/11 14:48:55;;;;;;;1.60;1.10;;;24.10;1.00;;;;;;5102947;27;20335;-74
2021/07/11 14:51:44;;;;;;;1.95;1.20;;;23.60;1.00;;;;;;5110686;27;20054;-73
2021/07/11 14:54:33;;;;;;;1.58;1.30;;;23.50;1.00;;;;;;5109376;27;20084;-74